world map with DMK marked

DMK - Airport

This information may not be accurate or current and is not valid for navigation or flight planning. No warranty of fitness for any purpose is made or implied.

flag of Thailand

Donate via PayPal

Additional information is available on the NEW Great Circle Mapper

Location
City:  Bangkok, Krung Thep Maha Nakhon (Bangkok), Thailand
Name:Don Mueang International (Don Muang International)
ICAO / IATA:VTBD / DMK

Details
Type:Airport (Aerodrome, Airfield)
Use:Public/Civil, Military
Latitude:13°54'45"N (13.912583)
Longitude:100°36'24"E (100.606750)
Datum:WGS 1984
Elevation:9 ft (3 m)
Runways:2
Longest:12139 × 197 ft (3700 × 60 m)

Time
Timezone:UTC+7 (DST+9)
Local Time:

Weather
METAR:VTBD  041400Z 23006KT CAVOK 30/22 Q1013 NOSIG
TAF:VTBD  041100Z 0412/0518 20005KT 9999 FEW025= TAF VTBS 041100Z 0412/0518 21005KT 9999 FEW025

Related Locations
Nearby:
Farthest:SPPR: 12241 mi / 19701 km
Chilca [Chilca Airport (Canete Airport, Professional Air)], LIM, PE

Find:

   beyond  
but within

Other Information
Maps:
Links:
Sources:

  

Airport Diagram

Airport diagram for DMK

Airport diagram (OBSOLETE) from NGA

 


Great Circle Mapper   Great Circle Mapper
Great Circle Mapper FAQ   Great Circle Mapper FAQ
  Karl's Home Page
KLSē   KLSē Home
   GC on Facebook
Airlines of the World   Airlines of the World
Donate via PayPal


Copyright © 2004-2019, Karl L. Swartz. All rights reserved.
All trademarks mentioned herein belong to their respective owners.

Please see credits for attribution and copyright information.

Karl Swartz <karl@kls2.com>
  Powered by FreeBSD
Valid HTML 4.01!
Labeled with ICRA
hCard Microformat
Geo Microformat